sensor_id;sensor_type;location;lat;lon;timestamp;P1;durP1;ratioP1;P2;durP2;ratioP2
75916;SDS011;64595;50.148;14.334;2024-02-14T00:01:50;26.80;;;13.27;;
75916;SDS011;64595;50.148;14.334;2024-02-14T00:04:16;23.15;;;14.32;;
75916;SDS011;64595;50.148;14.334;2024-02-14T00:06:41;23.95;;;13.32;;
75916;SDS011;64595;50.148;14.334;2024-02-14T00:09:07;27.65;;;15.13;;
75916;SDS011;64595;50.148;14.334;2024-02-14T00:11:32;29.48;;;15.10;;
75916;SDS011;64595;50.148;14.334;2024-02-14T00:13:58;20.88;;;13.68;;
75916;SDS011;64595;50.148;14.334;2024-02-14T00:16:25;22.50;;;13.07;;
75916;SDS011;64595;50.148;14.334;2024-02-14T00:18:50;24.83;;;12.25;;
75916;SDS011;64595;50.148;14.334;2024-02-14T00:21:16;23.08;;;12.45;;
75916;SDS011;64595;50.148;14.334;2024-02-14T00:23:41;26.63;;;12.73;;
75916;SDS011;64595;50.148;14.334;2024-02-14T00:26:07;22.50;;;13.48;;
75916;SDS011;64595;50.148;14.334;2024-02-14T00:28:32;23.50;;;12.10;;
75916;SDS011;64595;50.148;14.334;2024-02-14T00:30:58;25.42;;;13.10;;
75916;SDS011;64595;50.148;14.334;2024-02-14T00:33:24;24.85;;;13.30;;
75916;SDS011;64595;50.148;14.334;2024-02-14T00:35:50;23.23;;;12.57;;
75916;SDS011;64595;50.148;14.334;2024-02-14T00:38:15;21.40;;;12.35;;
75916;SDS011;64595;50.148;14.334;2024-02-14T00:40:41;25.08;;;12.80;;
75916;SDS011;64595;50.148;14.334;2024-02-14T00:43:06;24.90;;;13.23;;
75916;SDS011;64595;50.148;14.334;2024-02-14T00:45:32;23.50;;;12.98;;
75916;SDS011;64595;50.148;14.334;2024-02-14T00:47:57;21.50;;;12.32;;
75916;SDS011;64595;50.148;14.334;2024-02-14T00:50:24;22.60;;;12.35;;
75916;SDS011;64595;50.148;14.334;2024-02-14T00:52:50;23.83;;;13.52;;
75916;SDS011;64595;50.148;14.334;2024-02-14T00:55:15;25.77;;;13.15;;
75916;SDS011;64595;50.148;14.334;2024-02-14T00:57:40;26.20;;;13.40;;
75916;SDS011;64595;50.148;14.334;2024-02-14T01:00:06;24.85;;;13.52;;
75916;SDS011;64595;50.148;14.334;2024-02-14T01:02:32;25.63;;;14.15;;
75916;SDS011;64595;50.148;14.334;2024-02-14T01:04:58;25.92;;;13.73;;
75916;SDS011;64595;50.148;14.334;2024-02-14T01:07:24;25.08;;;13.00;;
75916;SDS011;64595;50.148;14.334;2024-02-14T01:09:50;21.73;;;12.55;;
75916;SDS011;64595;50.148;14.334;2024-02-14T01:12:15;27.30;;;12.02;;
75916;SDS011;64595;50.148;14.334;2024-02-14T01:14:41;25.55;;;12.32;;
75916;SDS011;64595;50.148;14.334;2024-02-14T01:17:06;21.27;;;12.10;;
75916;SDS011;64595;50.148;14.334;2024-02-14T01:19:32;21.13;;;12.13;;
75916;SDS011;64595;50.148;14.334;2024-02-14T01:21:57;25.00;;;12.77;;
75916;SDS011;64595;50.148;14.334;2024-02-14T01:24:24;20.77;;;13.13;;
75916;SDS011;64595;50.148;14.334;2024-02-14T01:26:49;23.85;;;12.88;;
75916;SDS011;64595;50.148;14.334;2024-02-14T01:29:15;20.92;;;11.65;;
75916;SDS011;64595;50.148;14.334;2024-02-14T01:31:40;20.70;;;11.10;;
75916;SDS011;64595;50.148;14.334;2024-02-14T01:34:06;23.95;;;12.35;;
75916;SDS011;64595;50.148;14.334;2024-02-14T01:36:32;21.25;;;11.27;;
75916;SDS011;64595;50.148;14.334;2024-02-14T01:38:57;24.85;;;11.95;;
75916;SDS011;64595;50.148;14.334;2024-02-14T01:41:24;25.88;;;11.98;;
75916;SDS011;64595;50.148;14.334;2024-02-14T01:43:50;22.63;;;11.02;;
75916;SDS011;64595;50.148;14.334;2024-02-14T01:46:15;22.52;;;10.98;;
75916;SDS011;64595;50.148;14.334;2024-02-14T01:48:41;24.38;;;11.88;;
75916;SDS011;64595;50.148;14.334;2024-02-14T01:51:07;20.38;;;11.63;;
75916;SDS011;64595;50.148;14.334;2024-02-14T01:53:34;22.33;;;11.63;;
75916;SDS011;64595;50.148;14.334;2024-02-14T01:55:59;19.13;;;11.07;;
75916;SDS011;64595;50.148;14.334;2024-02-14T01:58:26;24.02;;;12.60;;
75916;SDS011;64595;50.148;14.334;2024-02-14T02:00:52;20.48;;;10.82;;
75916;SDS011;64595;50.148;14.334;2024-02-14T02:03:18;20.80;;;11.55;;
75916;SDS011;64595;50.148;14.334;2024-02-14T02:05:44;23.13;;;11.85;;
75916;SDS011;64595;50.148;14.334;2024-02-14T02:08:09;22.40;;;12.45;;
75916;SDS011;64595;50.148;14.334;2024-02-14T02:10:35;26.33;;;13.80;;
75916;SDS011;64595;50.148;14.334;2024-02-14T02:13:00;21.58;;;12.32;;
75916;SDS011;64595;50.148;14.334;2024-02-14T02:15:27;24.27;;;13.40;;
75916;SDS011;64595;50.148;14.334;2024-02-14T02:17:53;24.30;;;12.63;;
75916;SDS011;64595;50.148;14.334;2024-02-14T02:20:18;24.10;;;12.52;;
75916;SDS011;64595;50.148;14.334;2024-02-14T02:22:46;23.25;;;12.63;;
75916;SDS011;64595;50.148;14.334;2024-02-14T02:25:11;20.25;;;12.88;;
75916;SDS011;64595;50.148;14.334;2024-02-14T02:27:37;24.15;;;13.40;;
75916;SDS011;64595;50.148;14.334;2024-02-14T02:30:03;23.15;;;12.43;;
75916;SDS011;64595;50.148;14.334;2024-02-14T02:32:29;23.27;;;12.57;;
75916;SDS011;64595;50.148;14.334;2024-02-14T02:34:55;18.75;;;10.63;;
75916;SDS011;64595;50.148;14.334;2024-02-14T02:37:20;18.75;;;12.10;;
75916;SDS011;64595;50.148;14.334;2024-02-14T02:39:47;23.35;;;12.35;;
75916;SDS011;64595;50.148;14.334;2024-02-14T02:42:12;22.77;;;11.50;;
75916;SDS011;64595;50.148;14.334;2024-02-14T02:44:38;23.50;;;12.35;;
75916;SDS011;64595;50.148;14.334;2024-02-14T02:47:03;20.25;;;10.15;;
75916;SDS011;64595;50.148;14.334;2024-02-14T02:49:29;21.60;;;11.93;;
75916;SDS011;64595;50.148;14.334;2024-02-14T02:51:54;20.25;;;10.80;;
75916;SDS011;64595;50.148;14.334;2024-02-14T02:54:20;21.17;;;11.65;;
75916;SDS011;64595;50.148;14.334;2024-02-14T02:56:46;24.13;;;11.65;;
75916;SDS011;64595;50.148;14.334;2024-02-14T02:59:12;17.08;;;10.07;;
75916;SDS011;64595;50.148;14.334;2024-02-14T03:01:37;14.20;;;8.70;;
75916;SDS011;64595;50.148;14.334;2024-02-14T03:04:03;23.52;;;12.82;;
75916;SDS011;64595;50.148;14.334;2024-02-14T03:06:29;18.98;;;9.93;;
75916;SDS011;64595;50.148;14.334;2024-02-14T03:08:54;20.17;;;11.00;;
75916;SDS011;64595;50.148;14.334;2024-02-14T03:11:20;18.40;;;10.25;;
75916;SDS011;64595;50.148;14.334;2024-02-14T03:13:47;15.95;;;9.45;;
75916;SDS011;64595;50.148;14.334;2024-02-14T03:16:12;20.50;;;10.73;;
75916;SDS011;64595;50.148;14.334;2024-02-14T03:18:38;20.83;;;11.13;;
75916;SDS011;64595;50.148;14.334;2024-02-14T03:21:03;22.73;;;12.10;;
75916;SDS011;64595;50.148;14.334;2024-02-14T03:23:29;24.05;;;12.57;;
75916;SDS011;64595;50.148;14.334;2024-02-14T03:25:54;22.17;;;11.82;;
75916;SDS011;64595;50.148;14.334;2024-02-14T03:28:20;24.00;;;12.13;;
75916;SDS011;64595;50.148;14.334;2024-02-14T03:30:46;22.67;;;11.23;;
75916;SDS011;64595;50.148;14.334;2024-02-14T03:33:12;21.10;;;10.85;;
75916;SDS011;64595;50.148;14.334;2024-02-14T03:35:37;21.95;;;11.77;;
75916;SDS011;64595;50.148;14.334;2024-02-14T03:38:03;20.67;;;12.20;;
75916;SDS011;64595;50.148;14.334;2024-02-14T03:40:36;22.13;;;11.55;;
75916;SDS011;64595;50.148;14.334;2024-02-14T03:43:01;24.10;;;11.65;;
75916;SDS011;64595;50.148;14.334;2024-02-14T03:45:27;19.83;;;10.90;;
75916;SDS011;64595;50.148;14.334;2024-02-14T03:47:53;16.95;;;10.20;;
75916;SDS011;64595;50.148;14.334;2024-02-14T03:50:19;18.33;;;10.52;;
75916;SDS011;64595;50.148;14.334;2024-02-14T03:52:44;19.10;;;11.45;;
75916;SDS011;64595;50.148;14.334;2024-02-14T03:55:10;22.23;;;11.55;;
75916;SDS011;64595;50.148;14.334;2024-02-14T03:57:36;27.38;;;14.70;;
75916;SDS011;64595;50.148;14.334;2024-02-14T04:00:01;27.67;;;13.52;;
75916;SDS011;64595;50.148;14.334;2024-02-14T04:02:27;23.88;;;12.18;;
75916;SDS011;64595;50.148;14.334;2024-02-14T04:04:53;22.88;;;12.40;;
75916;SDS011;64595;50.148;14.334;2024-02-14T04:07:19;28.00;;;12.93;;
75916;SDS011;64595;50.148;14.334;2024-02-14T04:09:44;22.92;;;12.77;;
75916;SDS011;64595;50.148;14.334;2024-02-14T04:12:10;27.52;;;12.55;;
75916;SDS011;64595;50.148;14.334;2024-02-14T04:14:35;21.85;;;11.73;;
75916;SDS011;64595;50.148;14.334;2024-02-14T04:17:01;21.88;;;13.00;;
75916;SDS011;64595;50.148;14.334;2024-02-14T04:19:26;28.27;;;12.90;;
75916;SDS011;64595;50.148;14.334;2024-02-14T04:21:53;29.17;;;12.95;;
75916;SDS011;64595;50.148;14.334;2024-02-14T04:24:19;23.40;;;12.98;;
75916;SDS011;64595;50.148;14.334;2024-02-14T04:26:44;22.48;;;12.75;;
75916;SDS011;64595;50.148;14.334;2024-02-14T04:29:09;22.85;;;12.75;;
75916;SDS011;64595;50.148;14.334;2024-02-14T04:31:35;25.92;;;12.75;;
75916;SDS011;64595;50.148;14.334;2024-02-14T04:34:00;29.65;;;13.25;;
75916;SDS011;64595;50.148;14.334;2024-02-14T04:36:26;24.98;;;12.20;;
75916;SDS011;64595;50.148;14.334;2024-02-14T04:38:53;24.63;;;12.00;;
75916;SDS011;64595;50.148;14.334;2024-02-14T04:41:18;21.70;;;11.05;;
75916;SDS011;64595;50.148;14.334;2024-02-14T04:43:43;22.30;;;12.50;;
75916;SDS011;64595;50.148;14.334;2024-02-14T04:46:09;24.98;;;12.18;;
75916;SDS011;64595;50.148;14.334;2024-02-14T04:48:35;20.58;;;11.93;;
75916;SDS011;64595;50.148;14.334;2024-02-14T04:51:01;27.52;;;11.63;;
75916;SDS011;64595;50.148;14.334;2024-02-14T04:53:26;24.00;;;11.57;;
75916;SDS011;64595;50.148;14.334;2024-02-14T04:55:53;28.50;;;12.70;;
75916;SDS011;64595;50.148;14.334;2024-02-14T04:58:19;21.85;;;12.13;;
75916;SDS011;64595;50.148;14.334;2024-02-14T05:00:44;27.95;;;12.75;;
75916;SDS011;64595;50.148;14.334;2024-02-14T05:03:09;24.30;;;12.20;;
75916;SDS011;64595;50.148;14.334;2024-02-14T05:05:35;23.52;;;11.50;;
75916;SDS011;64595;50.148;14.334;2024-02-14T05:08:00;19.65;;;11.38;;
75916;SDS011;64595;50.148;14.334;2024-02-14T05:10:26;20.48;;;11.20;;
75916;SDS011;64595;50.148;14.334;2024-02-14T05:12:53;24.02;;;12.00;;
75916;SDS011;64595;50.148;14.334;2024-02-14T05:15:18;22.08;;;10.85;;
75916;SDS011;64595;50.148;14.334;2024-02-14T05:17:44;24.77;;;11.43;;
75916;SDS011;64595;50.148;14.334;2024-02-14T05:20:09;23.25;;;10.23;;
75916;SDS011;64595;50.148;14.334;2024-02-14T05:22:35;23.00;;;11.23;;
75916;SDS011;64595;50.148;14.334;2024-02-14T05:25:01;22.63;;;11.85;;
75916;SDS011;64595;50.148;14.334;2024-02-14T05:27:26;19.15;;;11.27;;
75916;SDS011;64595;50.148;14.334;2024-02-14T05:29:53;18.38;;;10.13;;
75916;SDS011;64595;50.148;14.334;2024-02-14T05:32:19;20.08;;;11.52;;
75916;SDS011;64595;50.148;14.334;2024-02-14T05:34:44;29.20;;;11.93;;
75916;SDS011;64595;50.148;14.334;2024-02-14T05:37:09;27.75;;;12.00;;
75916;SDS011;64595;50.148;14.334;2024-02-14T05:39:35;24.20;;;11.13;;
75916;SDS011;64595;50.148;14.334;2024-02-14T05:42:00;33.53;;;12.38;;
75916;SDS011;64595;50.148;14.334;2024-02-14T05:44:26;20.42;;;10.88;;
75916;SDS011;64595;50.148;14.334;2024-02-14T05:46:53;20.55;;;12.18;;
75916;SDS011;64595;50.148;14.334;2024-02-14T05:49:18;21.70;;;12.25;;
75916;SDS011;64595;50.148;14.334;2024-02-14T05:51:44;21.25;;;11.68;;
75916;SDS011;64595;50.148;14.334;2024-02-14T05:54:09;20.15;;;10.65;;
75916;SDS011;64595;50.148;14.334;2024-02-14T05:56:35;21.67;;;12.07;;
75916;SDS011;64595;50.148;14.334;2024-02-14T05:59:00;23.30;;;11.40;;
75916;SDS011;64595;50.148;14.334;2024-02-14T06:01:25;21.85;;;11.70;;
75916;SDS011;64595;50.148;14.334;2024-02-14T06:03:52;22.48;;;12.00;;
75916;SDS011;64595;50.148;14.334;2024-02-14T06:06:18;20.58;;;11.38;;
75916;SDS011;64595;50.148;14.334;2024-02-14T06:08:43;24.38;;;11.80;;
75916;SDS011;64595;50.148;14.334;2024-02-14T06:11:09;21.20;;;11.73;;
75916;SDS011;64595;50.148;14.334;2024-02-14T06:13:34;33.40;;;13.60;;
75916;SDS011;64595;50.148;14.334;2024-02-14T06:16:00;30.30;;;16.65;;
75916;SDS011;64595;50.148;14.334;2024-02-14T06:18:25;34.25;;;18.42;;
75916;SDS011;64595;50.148;14.334;2024-02-14T06:20:52;29.95;;;16.75;;
75916;SDS011;64595;50.148;14.334;2024-02-14T06:23:18;33.58;;;17.58;;
75916;SDS011;64595;50.148;14.334;2024-02-14T06:25:43;32.65;;;16.90;;
75916;SDS011;64595;50.148;14.334;2024-02-14T06:28:09;32.80;;;18.27;;
75916;SDS011;64595;50.148;14.334;2024-02-14T06:30:34;34.90;;;16.73;;
75916;SDS011;64595;50.148;14.334;2024-02-14T06:33:00;32.75;;;19.10;;
75916;SDS011;64595;50.148;14.334;2024-02-14T06:35:25;34.10;;;18.60;;
75916;SDS011;64595;50.148;14.334;2024-02-14T06:37:52;36.00;;;19.30;;
75916;SDS011;64595;50.148;14.334;2024-02-14T06:40:18;32.30;;;20.00;;
75916;SDS011;64595;50.148;14.334;2024-02-14T06:42:43;33.33;;;19.00;;
75916;SDS011;64595;50.148;14.334;2024-02-14T06:45:09;40.13;;;20.80;;
75916;SDS011;64595;50.148;14.334;2024-02-14T06:47:34;38.88;;;19.65;;
75916;SDS011;64595;50.148;14.334;2024-02-14T06:50:00;35.92;;;21.55;;
75916;SDS011;64595;50.148;14.334;2024-02-14T06:52:25;37.42;;;20.48;;
75916;SDS011;64595;50.148;14.334;2024-02-14T06:54:52;35.53;;;18.27;;
75916;SDS011;64595;50.148;14.334;2024-02-14T06:57:18;30.73;;;18.10;;
75916;SDS011;64595;50.148;14.334;2024-02-14T06:59:43;31.60;;;18.45;;
75916;SDS011;64595;50.148;14.334;2024-02-14T07:02:09;34.35;;;19.58;;
75916;SDS011;64595;50.148;14.334;2024-02-14T07:04:34;36.47;;;18.88;;
75916;SDS011;64595;50.148;14.334;2024-02-14T07:07:00;37.47;;;21.40;;
75916;SDS011;64595;50.148;14.334;2024-02-14T07:09:25;44.17;;;24.33;;
75916;SDS011;64595;50.148;14.334;2024-02-14T07:11:52;39.53;;;21.67;;
75916;SDS011;64595;50.148;14.334;2024-02-14T07:14:18;35.67;;;20.80;;
75916;SDS011;64595;50.148;14.334;2024-02-14T07:16:43;36.65;;;18.85;;
75916;SDS011;64595;50.148;14.334;2024-02-14T07:19:09;33.08;;;18.25;;
75916;SDS011;64595;50.148;14.334;2024-02-14T07:21:34;34.50;;;18.92;;
75916;SDS011;64595;50.148;14.334;2024-02-14T07:23:59;40.55;;;21.23;;
75916;SDS011;64595;50.148;14.334;2024-02-14T07:26:25;34.88;;;17.73;;
75916;SDS011;64595;50.148;14.334;2024-02-14T07:28:52;50.78;;;20.88;;
75916;SDS011;64595;50.148;14.334;2024-02-14T07:31:17;45.30;;;20.65;;
75916;SDS011;64595;50.148;14.334;2024-02-14T07:33:43;38.55;;;20.90;;
75916;SDS011;64595;50.148;14.334;2024-02-14T07:36:08;46.40;;;20.58;;
75916;SDS011;64595;50.148;14.334;2024-02-14T07:38:33;41.58;;;20.75;;
75916;SDS011;64595;50.148;14.334;2024-02-14T07:40:59;36.50;;;18.88;;
75916;SDS011;64595;50.148;14.334;2024-02-14T07:43:24;39.60;;;19.17;;
75916;SDS011;64595;50.148;14.334;2024-02-14T07:45:51;38.83;;;17.20;;
75916;SDS011;64595;50.148;14.334;2024-02-14T07:48:17;40.03;;;15.73;;
75916;SDS011;64595;50.148;14.334;2024-02-14T07:50:42;31.88;;;16.35;;
75916;SDS011;64595;50.148;14.334;2024-02-14T07:53:08;30.88;;;16.13;;
75916;SDS011;64595;50.148;14.334;2024-02-14T07:55:33;29.42;;;15.32;;
75916;SDS011;64595;50.148;14.334;2024-02-14T07:57:58;26.27;;;15.27;;
75916;SDS011;64595;50.148;14.334;2024-02-14T08:00:24;29.88;;;15.52;;
75916;SDS011;64595;50.148;14.334;2024-02-14T08:02:51;26.75;;;15.32;;
75916;SDS011;64595;50.148;14.334;2024-02-14T08:05:16;28.70;;;15.13;;
75916;SDS011;64595;50.148;14.334;2024-02-14T08:07:42;31.55;;;14.23;;
75916;SDS011;64595;50.148;14.334;2024-02-14T08:10:08;30.00;;;13.43;;
75916;SDS011;64595;50.148;14.334;2024-02-14T08:12:34;26.45;;;13.38;;
75916;SDS011;64595;50.148;14.334;2024-02-14T08:14:59;26.02;;;13.50;;
75916;SDS011;64595;50.148;14.334;2024-02-14T08:17:24;29.35;;;13.57;;
75916;SDS011;64595;50.148;14.334;2024-02-14T08:19:51;25.08;;;12.30;;
75916;SDS011;64595;50.148;14.334;2024-02-14T08:22:17;24.60;;;11.75;;
75916;SDS011;64595;50.148;14.334;2024-02-14T08:24:42;18.13;;;10.57;;
75916;SDS011;64595;50.148;14.334;2024-02-14T08:27:08;18.23;;;10.48;;
75916;SDS011;64595;50.148;14.334;2024-02-14T08:29:33;22.58;;;11.40;;
75916;SDS011;64595;50.148;14.334;2024-02-14T08:31:59;18.60;;;10.13;;
75916;SDS011;64595;50.148;14.334;2024-02-14T08:34:24;13.50;;;7.65;;
75916;SDS011;64595;50.148;14.334;2024-02-14T08:36:51;14.73;;;7.45;;
75916;SDS011;64595;50.148;14.334;2024-02-14T08:39:16;23.17;;;11.15;;
75916;SDS011;64595;50.148;14.334;2024-02-14T08:41:43;18.20;;;7.43;;
75916;SDS011;64595;50.148;14.334;2024-02-14T08:44:09;13.27;;;6.80;;
75916;SDS011;64595;50.148;14.334;2024-02-14T08:46:34;10.50;;;4.80;;
75916;SDS011;64595;50.148;14.334;2024-02-14T08:49:00;9.35;;;4.80;;
75916;SDS011;64595;50.148;14.334;2024-02-14T08:51:26;12.20;;;4.30;;
75916;SDS011;64595;50.148;14.334;2024-02-14T08:53:53;10.35;;;3.80;;
75916;SDS011;64595;50.148;14.334;2024-02-14T08:56:18;6.90;;;3.55;;
75916;SDS011;64595;50.148;14.334;2024-02-14T08:58:44;10.18;;;3.75;;
75916;SDS011;64595;50.148;14.334;2024-02-14T09:01:09;6.40;;;3.38;;
75916;SDS011;64595;50.148;14.334;2024-02-14T09:03:35;6.25;;;3.15;;
75916;SDS011;64595;50.148;14.334;2024-02-14T09:06:00;9.95;;;3.60;;
75916;SDS011;64595;50.148;14.334;2024-02-14T09:08:26;8.40;;;3.60;;
75916;SDS011;64595;50.148;14.334;2024-02-14T09:10:52;8.32;;;3.80;;
75916;SDS011;64595;50.148;14.334;2024-02-14T09:13:18;9.55;;;3.60;;
75916;SDS011;64595;50.148;14.334;2024-02-14T09:15:43;6.65;;;3.67;;
75916;SDS011;64595;50.148;14.334;2024-02-14T09:18:09;6.72;;;3.65;;
75916;SDS011;64595;50.148;14.334;2024-02-14T09:20:34;5.53;;;2.95;;
75916;SDS011;64595;50.148;14.334;2024-02-14T09:23:00;4.72;;;2.72;;
75916;SDS011;64595;50.148;14.334;2024-02-14T09:25:25;7.07;;;2.80;;
75916;SDS011;64595;50.148;14.334;2024-02-14T09:27:52;5.60;;;2.90;;
75916;SDS011;64595;50.148;14.334;2024-02-14T09:30:18;6.00;;;2.80;;
75916;SDS011;64595;50.148;14.334;2024-02-14T09:32:43;7.47;;;2.90;;
75916;SDS011;64595;50.148;14.334;2024-02-14T09:35:09;6.95;;;3.28;;
75916;SDS011;64595;50.148;14.334;2024-02-14T09:37:34;5.93;;;3.47;;
75916;SDS011;64595;50.148;14.334;2024-02-14T09:40:00;5.95;;;3.00;;
75916;SDS011;64595;50.148;14.334;2024-02-14T09:42:27;6.32;;;3.53;;
75916;SDS011;64595;50.148;14.334;2024-02-14T09:44:56;7.07;;;3.53;;
75916;SDS011;64595;50.148;14.334;2024-02-14T09:47:26;7.55;;;3.47;;
75916;SDS011;64595;50.148;14.334;2024-02-14T09:49:53;8.05;;;3.20;;
75916;SDS011;64595;50.148;14.334;2024-02-14T09:52:19;6.43;;;3.47;;
75916;SDS011;64595;50.148;14.334;2024-02-14T09:54:45;6.63;;;3.40;;
75916;SDS011;64595;50.148;14.334;2024-02-14T09:57:10;5.32;;;3.05;;
75916;SDS011;64595;50.148;14.334;2024-02-14T09:59:36;4.60;;;3.22;;
75916;SDS011;64595;50.148;14.334;2024-02-14T10:02:03;6.53;;;3.40;;
75916;SDS011;64595;50.148;14.334;2024-02-14T10:04:29;5.03;;;3.08;;
75916;SDS011;64595;50.148;14.334;2024-02-14T10:06:55;5.53;;;2.90;;
75916;SDS011;64595;50.148;14.334;2024-02-14T10:09:21;6.20;;;3.03;;
75916;SDS011;64595;50.148;14.334;2024-02-14T10:11:47;7.20;;;3.60;;
75916;SDS011;64595;50.148;14.334;2024-02-14T10:14:12;9.57;;;3.42;;
75916;SDS011;64595;50.148;14.334;2024-02-14T10:16:38;7.00;;;3.30;;
75916;SDS011;64595;50.148;14.334;2024-02-14T10:19:05;9.52;;;3.58;;
75916;SDS011;64595;50.148;14.334;2024-02-14T10:21:30;7.75;;;3.80;;
75916;SDS011;64595;50.148;14.334;2024-02-14T10:23:58;6.88;;;3.50;;
75916;SDS011;64595;50.148;14.334;2024-02-14T10:26:24;5.07;;;3.33;;
75916;SDS011;64595;50.148;14.334;2024-02-14T10:28:50;4.97;;;3.10;;
75916;SDS011;64595;50.148;14.334;2024-02-14T10:31:15;6.75;;;3.45;;
75916;SDS011;64595;50.148;14.334;2024-02-14T10:33:41;8.80;;;3.88;;
75916;SDS011;64595;50.148;14.334;2024-02-14T10:36:08;8.57;;;3.97;;
75916;SDS011;64595;50.148;14.334;2024-02-14T10:38:34;6.05;;;4.00;;
75916;SDS011;64595;50.148;14.334;2024-02-14T10:41:00;7.82;;;3.75;;
75916;SDS011;64595;50.148;14.334;2024-02-14T10:43:26;5.47;;;3.50;;
75916;SDS011;64595;50.148;14.334;2024-02-14T10:45:51;7.72;;;3.72;;
75916;SDS011;64595;50.148;14.334;2024-02-14T10:48:17;8.05;;;3.97;;
75916;SDS011;64595;50.148;14.334;2024-02-14T10:50:43;6.55;;;3.67;;
75916;SDS011;64595;50.148;14.334;2024-02-14T10:53:13;8.23;;;4.10;;
75916;SDS011;64595;50.148;14.334;2024-02-14T10:55:39;7.70;;;4.00;;
75916;SDS011;64595;50.148;14.334;2024-02-14T10:58:05;10.40;;;4.45;;
75916;SDS011;64595;50.148;14.334;2024-02-14T11:00:31;7.13;;;4.32;;
75916;SDS011;64595;50.148;14.334;2024-02-14T11:02:57;8.73;;;4.22;;
75916;SDS011;64595;50.148;14.334;2024-02-14T11:05:23;9.75;;;4.57;;
75916;SDS011;64595;50.148;14.334;2024-02-14T11:07:48;7.88;;;3.67;;
75916;SDS011;64595;50.148;14.334;2024-02-14T11:10:16;7.13;;;3.95;;
75916;SDS011;64595;50.148;14.334;2024-02-14T11:12:42;5.80;;;4.10;;
75916;SDS011;64595;50.148;14.334;2024-02-14T11:15:11;7.32;;;3.67;;
75916;SDS011;64595;50.148;14.334;2024-02-14T11:17:38;10.20;;;3.92;;
75916;SDS011;64595;50.148;14.334;2024-02-14T11:20:16;5.70;;;3.50;;
75916;SDS011;64595;50.148;14.334;2024-02-14T11:22:55;4.72;;;2.95;;
75916;SDS011;64595;50.148;14.334;2024-02-14T11:25:23;6.82;;;3.38;;
75916;SDS011;64595;50.148;14.334;2024-02-14T11:27:53;6.28;;;3.10;;
75916;SDS011;64595;50.148;14.334;2024-02-14T11:30:26;9.38;;;3.40;;
75916;SDS011;64595;50.148;14.334;2024-02-14T11:32:53;6.38;;;2.80;;
75916;SDS011;64595;50.148;14.334;2024-02-14T11:35:19;5.30;;;2.60;;
75916;SDS011;64595;50.148;14.334;2024-02-14T11:37:44;6.43;;;2.90;;
75916;SDS011;64595;50.148;14.334;2024-02-14T11:40:18;5.57;;;2.78;;
75916;SDS011;64595;50.148;14.334;2024-02-14T11:42:45;6.75;;;3.25;;
75916;SDS011;64595;50.148;14.334;2024-02-14T11:45:11;4.10;;;3.08;;
75916;SDS011;64595;50.148;14.334;2024-02-14T11:47:36;5.57;;;3.17;;
75916;SDS011;64595;50.148;14.334;2024-02-14T11:50:02;7.50;;;3.10;;
75916;SDS011;64595;50.148;14.334;2024-02-14T11:52:28;11.82;;;3.05;;
75916;SDS011;64595;50.148;14.334;2024-02-14T11:54:53;6.57;;;2.70;;
75916;SDS011;64595;50.148;14.334;2024-02-14T11:57:19;3.45;;;2.40;;
75916;SDS011;64595;50.148;14.334;2024-02-14T11:59:46;5.20;;;3.28;;
75916;SDS011;64595;50.148;14.334;2024-02-14T12:02:14;3.72;;;2.55;;
75916;SDS011;64595;50.148;14.334;2024-02-14T12:04:39;6.00;;;3.30;;
75916;SDS011;64595;50.148;14.334;2024-02-14T12:07:05;6.45;;;3.60;;
75916;SDS011;64595;50.148;14.334;2024-02-14T12:09:31;5.63;;;2.92;;
75916;SDS011;64595;50.148;14.334;2024-02-14T12:11:56;5.05;;;3.58;;
75916;SDS011;64595;50.148;14.334;2024-02-14T12:14:22;9.27;;;4.35;;
75916;SDS011;64595;50.148;14.334;2024-02-14T12:16:49;7.47;;;3.70;;
75916;SDS011;64595;50.148;14.334;2024-02-14T12:19:15;5.18;;;3.25;;
75916;SDS011;64595;50.148;14.334;2024-02-14T12:21:41;7.72;;;3.53;;
75916;SDS011;64595;50.148;14.334;2024-02-14T12:24:07;7.05;;;3.88;;
75916;SDS011;64595;50.148;14.334;2024-02-14T12:26:33;6.30;;;3.78;;
75916;SDS011;64595;50.148;14.334;2024-02-14T12:29:01;7.70;;;3.97;;
75916;SDS011;64595;50.148;14.334;2024-02-14T12:31:27;8.40;;;3.45;;
75916;SDS011;64595;50.148;14.334;2024-02-14T12:33:54;6.72;;;4.32;;
75916;SDS011;64595;50.148;14.334;2024-02-14T12:36:20;15.82;;;6.35;;
75916;SDS011;64595;50.148;14.334;2024-02-14T12:38:46;10.45;;;4.95;;
75916;SDS011;64595;50.148;14.334;2024-02-14T12:41:11;9.85;;;4.78;;
75916;SDS011;64595;50.148;14.334;2024-02-14T12:43:37;24.23;;;10.02;;
75916;SDS011;64595;50.148;14.334;2024-02-14T12:46:02;18.95;;;6.00;;
75916;SDS011;64595;50.148;14.334;2024-02-14T12:48:28;14.00;;;6.70;;
75916;SDS011;64595;50.148;14.334;2024-02-14T12:50:54;3.95;;;2.70;;
75916;SDS011;64595;50.148;14.334;2024-02-14T12:53:20;7.93;;;3.60;;
75916;SDS011;64595;50.148;14.334;2024-02-14T12:55:45;4.70;;;3.08;;
75916;SDS011;64595;50.148;14.334;2024-02-14T12:58:11;9.65;;;3.85;;
75916;SDS011;64595;50.148;14.334;2024-02-14T13:00:37;5.35;;;3.05;;
75916;SDS011;64595;50.148;14.334;2024-02-14T13:03:02;11.48;;;5.85;;
75916;SDS011;64595;50.148;14.334;2024-02-14T13:05:28;8.80;;;4.30;;
75916;SDS011;64595;50.148;14.334;2024-02-14T13:07:55;7.85;;;5.10;;
75916;SDS011;64595;50.148;14.334;2024-02-14T13:10:20;13.73;;;6.70;;
75916;SDS011;64595;50.148;14.334;2024-02-14T13:12:46;7.85;;;3.92;;
75916;SDS011;64595;50.148;14.334;2024-02-14T13:15:11;9.90;;;4.40;;
75916;SDS011;64595;50.148;14.334;2024-02-14T13:17:36;7.20;;;3.67;;
75916;SDS011;64595;50.148;14.334;2024-02-14T13:20:02;6.22;;;3.97;;
75916;SDS011;64595;50.148;14.334;2024-02-14T13:22:28;5.78;;;3.30;;
75916;SDS011;64595;50.148;14.334;2024-02-14T13:24:55;5.93;;;2.72;;
75916;SDS011;64595;50.148;14.334;2024-02-14T13:27:20;4.95;;;3.00;;
75916;SDS011;64595;50.148;14.334;2024-02-14T13:29:46;6.13;;;3.42;;
75916;SDS011;64595;50.148;14.334;2024-02-14T13:32:11;4.75;;;3.10;;
75916;SDS011;64595;50.148;14.334;2024-02-14T13:34:37;14.63;;;7.97;;
75916;SDS011;64595;50.148;14.334;2024-02-14T13:37:02;15.30;;;8.15;;
75916;SDS011;64595;50.148;14.334;2024-02-14T13:39:28;9.73;;;4.78;;
75916;SDS011;64595;50.148;14.334;2024-02-14T13:41:55;7.28;;;3.00;;
75916;SDS011;64595;50.148;14.334;2024-02-14T13:44:21;4.68;;;2.67;;
75916;SDS011;64595;50.148;14.334;2024-02-14T13:46:46;4.93;;;3.58;;
75916;SDS011;64595;50.148;14.334;2024-02-14T13:49:12;5.70;;;3.08;;
75916;SDS011;64595;50.148;14.334;2024-02-14T13:51:37;5.60;;;3.00;;
75916;SDS011;64595;50.148;14.334;2024-02-14T13:54:03;5.22;;;2.80;;
75916;SDS011;64595;50.148;14.334;2024-02-14T13:56:29;4.88;;;2.65;;
75916;SDS011;64595;50.148;14.334;2024-02-14T13:58:56;5.53;;;2.85;;
75916;SDS011;64595;50.148;14.334;2024-02-14T14:01:21;6.32;;;3.45;;
75916;SDS011;64595;50.148;14.334;2024-02-14T14:03:47;6.05;;;3.45;;
75916;SDS011;64595;50.148;14.334;2024-02-14T14:06:12;5.90;;;2.95;;
75916;SDS011;64595;50.148;14.334;2024-02-14T14:08:37;7.38;;;3.45;;
75916;SDS011;64595;50.148;14.334;2024-02-14T14:11:04;5.20;;;3.30;;